sensor_id;sensor_type;location;lat;lon;timestamp;temperature;humidity
59311;DHT22;45078;51.654;21.250;2023-02-28T00:01:22;-6.20;99.90
59311;DHT22;45078;51.654;21.250;2023-02-28T00:03:48;-6.20;99.90
59311;DHT22;45078;51.654;21.250;2023-02-28T00:06:14;-6.20;99.90
59311;DHT22;45078;51.654;21.250;2023-02-28T00:08:40;-6.20;99.90
59311;DHT22;45078;51.654;21.250;2023-02-28T00:11:08;-6.20;99.90
59311;DHT22;45078;51.654;21.250;2023-02-28T00:13:36;-6.20;99.90
59311;DHT22;45078;51.654;21.250;2023-02-28T00:16:05;-6.20;99.90
59311;DHT22;45078;51.654;21.250;2023-02-28T00:18:31;-6.20;99.90
59311;DHT22;45078;51.654;21.250;2023-02-28T00:20:58;-6.30;99.90
59311;DHT22;45078;51.654;21.250;2023-02-28T00:23:24;-6.30;99.90
59311;DHT22;45078;51.654;21.250;2023-02-28T00:25:50;-6.30;99.90
59311;DHT22;45078;51.654;21.250;2023-02-28T00:28:16;-6.30;99.90
59311;DHT22;45078;51.654;21.250;2023-02-28T00:30:42;-6.30;99.90
59311;DHT22;45078;51.654;21.250;2023-02-28T00:33:08;-6.30;99.90
59311;DHT22;45078;51.654;21.250;2023-02-28T00:35:34;-6.30;99.90
59311;DHT22;45078;51.654;21.250;2023-02-28T00:38:00;-6.30;99.90
59311;DHT22;45078;51.654;21.250;2023-02-28T00:40:26;-6.30;99.90
59311;DHT22;45078;51.654;21.250;2023-02-28T00:42:51;-6.40;99.90
59311;DHT22;45078;51.654;21.250;2023-02-28T00:45:17;-6.40;99.90
59311;DHT22;45078;51.654;21.250;2023-02-28T00:47:43;-6.40;99.90
59311;DHT22;45078;51.654;21.250;2023-02-28T00:50:09;-6.40;99.90
59311;DHT22;45078;51.654;21.250;2023-02-28T00:52:35;-6.40;99.90
59311;DHT22;45078;51.654;21.250;2023-02-28T00:55:01;-6.40;99.90
59311;DHT22;45078;51.654;21.250;2023-02-28T00:57:27;-6.40;99.90
59311;DHT22;45078;51.654;21.250;2023-02-28T00:59:53;-6.40;99.90
59311;DHT22;45078;51.654;21.250;2023-02-28T01:02:21;-6.50;99.90
59311;DHT22;45078;51.654;21.250;2023-02-28T01:04:47;-6.50;99.90
59311;DHT22;45078;51.654;21.250;2023-02-28T01:07:13;-6.50;99.90
59311;DHT22;45078;51.654;21.250;2023-02-28T01:09:40;-6.50;99.90
59311;DHT22;45078;51.654;21.250;2023-02-28T01:12:07;-6.50;99.90
59311;DHT22;45078;51.654;21.250;2023-02-28T01:14:34;-6.50;99.90
59311;DHT22;45078;51.654;21.250;2023-02-28T01:17:00;-6.50;99.90
59311;DHT22;45078;51.654;21.250;2023-02-28T01:19:26;-6.50;99.90
59311;DHT22;45078;51.654;21.250;2023-02-28T01:21:52;-6.40;99.90
59311;DHT22;45078;51.654;21.250;2023-02-28T01:24:18;-6.50;99.90
59311;DHT22;45078;51.654;21.250;2023-02-28T01:26:43;-6.60;99.90
59311;DHT22;45078;51.654;21.250;2023-02-28T01:29:09;-6.60;99.90
59311;DHT22;45078;51.654;21.250;2023-02-28T01:31:35;-6.60;99.90
59311;DHT22;45078;51.654;21.250;2023-02-28T01:34:01;-6.60;99.90
59311;DHT22;45078;51.654;21.250;2023-02-28T01:36:27;-6.60;99.90
59311;DHT22;45078;51.654;21.250;2023-02-28T01:38:52;-6.60;99.90
59311;DHT22;45078;51.654;21.250;2023-02-28T01:41:25;-6.60;99.90
59311;DHT22;45078;51.654;21.250;2023-02-28T01:44:00;-6.60;99.90
59311;DHT22;45078;51.654;21.250;2023-02-28T01:46:33;-6.70;99.90
59311;DHT22;45078;51.654;21.250;2023-02-28T01:49:04;-6.70;99.90
59311;DHT22;45078;51.654;21.250;2023-02-28T01:51:40;-6.70;99.90
59311;DHT22;45078;51.654;21.250;2023-02-28T01:54:14;-6.70;99.90
59311;DHT22;45078;51.654;21.250;2023-02-28T01:56:49;-6.70;99.90
59311;DHT22;45078;51.654;21.250;2023-02-28T01:59:22;-6.80;99.90
59311;DHT22;45078;51.654;21.250;2023-02-28T02:01:50;-6.70;99.90
59311;DHT22;45078;51.654;21.250;2023-02-28T02:04:15;-6.80;99.90
59311;DHT22;45078;51.654;21.250;2023-02-28T02:06:44;-6.80;99.90
59311;DHT22;45078;51.654;21.250;2023-02-28T02:09:12;-6.80;99.90
59311;DHT22;45078;51.654;21.250;2023-02-28T02:11:39;-6.80;99.90
59311;DHT22;45078;51.654;21.250;2023-02-28T02:14:31;-6.80;99.90
59311;DHT22;45078;51.654;21.250;2023-02-28T02:17:28;-6.80;99.90
59311;DHT22;45078;51.654;21.250;2023-02-28T02:32:27;-6.90;99.90
59311;DHT22;45078;51.654;21.250;2023-02-28T02:40:30;-7.00;99.90
59311;DHT22;45078;51.654;21.250;2023-02-28T02:43:11;-7.00;99.90
59311;DHT22;45078;51.654;21.250;2023-02-28T02:46:02;-7.00;99.90
59311;DHT22;45078;51.654;21.250;2023-02-28T02:48:33;-7.00;99.90
59311;DHT22;45078;51.654;21.250;2023-02-28T02:51:03;-7.00;99.90
59311;DHT22;45078;51.654;21.250;2023-02-28T02:53:41;-7.00;99.90
59311;DHT22;45078;51.654;21.250;2023-02-28T02:56:08;-7.00;99.90
59311;DHT22;45078;51.654;21.250;2023-02-28T02:58:38;-7.00;99.90
59311;DHT22;45078;51.654;21.250;2023-02-28T03:01:09;-7.00;99.90
59311;DHT22;45078;51.654;21.250;2023-02-28T03:03:36;-7.00;99.90
59311;DHT22;45078;51.654;21.250;2023-02-28T03:06:02;-7.00;99.90
59311;DHT22;45078;51.654;21.250;2023-02-28T03:08:33;-7.10;99.90
59311;DHT22;45078;51.654;21.250;2023-02-28T03:11:01;-7.10;99.90
59311;DHT22;45078;51.654;21.250;2023-02-28T03:24:22;-7.10;99.90
59311;DHT22;45078;51.654;21.250;2023-02-28T03:26:58;-7.10;99.90
59311;DHT22;45078;51.654;21.250;2023-02-28T03:29:37;-7.10;99.90
59311;DHT22;45078;51.654;21.250;2023-02-28T03:32:11;-7.10;99.90
59311;DHT22;45078;51.654;21.250;2023-02-28T03:34:46;-7.10;99.90
59311;DHT22;45078;51.654;21.250;2023-02-28T03:37:20;-7.20;99.90
59311;DHT22;45078;51.654;21.250;2023-02-28T03:39:55;-7.20;99.90
59311;DHT22;45078;51.654;21.250;2023-02-28T03:42:24;-7.20;99.90
59311;DHT22;45078;51.654;21.250;2023-02-28T03:48:12;-7.10;99.90
59311;DHT22;45078;51.654;21.250;2023-02-28T03:50:40;-7.20;99.90
59311;DHT22;45078;51.654;21.250;2023-02-28T03:55:58;-7.10;99.90
59311;DHT22;45078;51.654;21.250;2023-02-28T03:58:40;-7.10;99.90
59311;DHT22;45078;51.654;21.250;2023-02-28T04:01:12;-7.10;99.90
59311;DHT22;45078;51.654;21.250;2023-02-28T04:03:39;-7.20;99.90
59311;DHT22;45078;51.654;21.250;2023-02-28T04:06:08;-7.10;99.90
59311;DHT22;45078;51.654;21.250;2023-02-28T04:08:38;-7.10;99.90
59311;DHT22;45078;51.654;21.250;2023-02-28T04:11:18;-7.10;99.90
59311;DHT22;45078;51.654;21.250;2023-02-28T04:13:45;-7.20;99.90
59311;DHT22;45078;51.654;21.250;2023-02-28T04:16:11;-7.20;99.90
59311;DHT22;45078;51.654;21.250;2023-02-28T04:18:38;-7.20;99.90
59311;DHT22;45078;51.654;21.250;2023-02-28T04:21:05;-7.20;99.90
59311;DHT22;45078;51.654;21.250;2023-02-28T04:23:31;-7.20;99.90
59311;DHT22;45078;51.654;21.250;2023-02-28T04:25:57;-7.20;99.90
59311;DHT22;45078;51.654;21.250;2023-02-28T04:28:23;-7.20;99.90
59311;DHT22;45078;51.654;21.250;2023-02-28T04:30:59;-7.20;99.90
59311;DHT22;45078;51.654;21.250;2023-02-28T04:33:25;-7.30;99.90
59311;DHT22;45078;51.654;21.250;2023-02-28T04:36:09;-7.30;99.90
59311;DHT22;45078;51.654;21.250;2023-02-28T04:38:37;-7.30;99.90
59311;DHT22;45078;51.654;21.250;2023-02-28T04:41:03;-7.30;99.90
59311;DHT22;45078;51.654;21.250;2023-02-28T04:43:30;-7.30;99.90
59311;DHT22;45078;51.654;21.250;2023-02-28T04:45:57;-7.30;99.90
59311;DHT22;45078;51.654;21.250;2023-02-28T04:48:25;-7.30;99.90
59311;DHT22;45078;51.654;21.250;2023-02-28T04:50:51;-7.40;99.90
59311;DHT22;45078;51.654;21.250;2023-02-28T04:53:18;-7.30;99.90
59311;DHT22;45078;51.654;21.250;2023-02-28T04:55:44;-7.40;99.90
59311;DHT22;45078;51.654;21.250;2023-02-28T04:58:10;-7.40;99.90
59311;DHT22;45078;51.654;21.250;2023-02-28T05:00:36;-7.50;99.90
59311;DHT22;45078;51.654;21.250;2023-02-28T05:03:02;-7.40;99.90
59311;DHT22;45078;51.654;21.250;2023-02-28T05:05:28;-7.50;99.90
59311;DHT22;45078;51.654;21.250;2023-02-28T05:07:53;-7.50;99.90
59311;DHT22;45078;51.654;21.250;2023-02-28T05:10:21;-7.50;99.90
59311;DHT22;45078;51.654;21.250;2023-02-28T05:12:47;-7.50;99.90
59311;DHT22;45078;51.654;21.250;2023-02-28T05:15:15;-7.50;99.90
59311;DHT22;45078;51.654;21.250;2023-02-28T05:17:41;-7.50;99.90
59311;DHT22;45078;51.654;21.250;2023-02-28T05:20:08;-7.50;99.90
59311;DHT22;45078;51.654;21.250;2023-02-28T05:22:40;-7.40;99.90
59311;DHT22;45078;51.654;21.250;2023-02-28T05:25:08;-7.40;99.90
59311;DHT22;45078;51.654;21.250;2023-02-28T05:27:34;-7.40;99.90
59311;DHT22;45078;51.654;21.250;2023-02-28T05:30:00;-7.40;99.90
59311;DHT22;45078;51.654;21.250;2023-02-28T05:32:28;-7.40;99.90
59311;DHT22;45078;51.654;21.250;2023-02-28T05:34:54;-7.40;99.90
59311;DHT22;45078;51.654;21.250;2023-02-28T05:37:20;-7.40;99.90
59311;DHT22;45078;51.654;21.250;2023-02-28T05:39:46;-7.30;99.90
59311;DHT22;45078;51.654;21.250;2023-02-28T05:42:12;-7.30;99.90
59311;DHT22;45078;51.654;21.250;2023-02-28T05:44:38;-7.20;99.90
59311;DHT22;45078;51.654;21.250;2023-02-28T05:47:03;-7.10;99.90
59311;DHT22;45078;51.654;21.250;2023-02-28T05:49:29;-7.10;99.90
59311;DHT22;45078;51.654;21.250;2023-02-28T05:51:55;-7.00;99.90
59311;DHT22;45078;51.654;21.250;2023-02-28T05:54:21;-6.90;99.90
59311;DHT22;45078;51.654;21.250;2023-02-28T05:56:46;-6.80;99.90
59311;DHT22;45078;51.654;21.250;2023-02-28T05:59:12;-6.70;99.90
59311;DHT22;45078;51.654;21.250;2023-02-28T06:01:40;-6.60;99.90
59311;DHT22;45078;51.654;21.250;2023-02-28T06:04:08;-6.50;99.90
59311;DHT22;45078;51.654;21.250;2023-02-28T06:06:35;-6.40;99.90
59311;DHT22;45078;51.654;21.250;2023-02-28T06:09:06;-6.20;99.90
59311;DHT22;45078;51.654;21.250;2023-02-28T06:11:32;-6.10;99.90
59311;DHT22;45078;51.654;21.250;2023-02-28T06:13:59;-5.90;99.90
59311;DHT22;45078;51.654;21.250;2023-02-28T06:16:27;-5.60;99.90
59311;DHT22;45078;51.654;21.250;2023-02-28T06:18:52;-5.30;99.90
59311;DHT22;45078;51.654;21.250;2023-02-28T06:21:21;-5.00;99.90
59311;DHT22;45078;51.654;21.250;2023-02-28T06:23:47;-4.70;99.90
59311;DHT22;45078;51.654;21.250;2023-02-28T06:26:13;-4.40;99.90
59311;DHT22;45078;51.654;21.250;2023-02-28T06:28:39;-4.20;99.90
59311;DHT22;45078;51.654;21.250;2023-02-28T06:31:09;-3.90;99.90
59311;DHT22;45078;51.654;21.250;2023-02-28T06:33:37;-3.60;99.90
59311;DHT22;45078;51.654;21.250;2023-02-28T06:36:04;-3.10;99.90
59311;DHT22;45078;51.654;21.250;2023-02-28T06:38:30;-2.40;99.90
59311;DHT22;45078;51.654;21.250;2023-02-28T06:40:57;-1.70;99.90
59311;DHT22;45078;51.654;21.250;2023-02-28T06:43:24;-0.90;99.90
59311;DHT22;45078;51.654;21.250;2023-02-28T06:45:50;-0.20;99.90
59311;DHT22;45078;51.654;21.250;2023-02-28T06:48:16;0.30;99.90
59311;DHT22;45078;51.654;21.250;2023-02-28T06:50:42;0.50;99.90
59311;DHT22;45078;51.654;21.250;2023-02-28T06:53:07;0.70;99.90
59311;DHT22;45078;51.654;21.250;2023-02-28T06:55:33;0.80;99.90
59311;DHT22;45078;51.654;21.250;2023-02-28T06:57:59;0.70;99.90
59311;DHT22;45078;51.654;21.250;2023-02-28T07:00:25;1.00;99.90
59311;DHT22;45078;51.654;21.250;2023-02-28T07:02:51;1.40;99.90
59311;DHT22;45078;51.654;21.250;2023-02-28T07:05:16;2.10;99.90
59311;DHT22;45078;51.654;21.250;2023-02-28T07:07:42;2.90;99.90
59311;DHT22;45078;51.654;21.250;2023-02-28T07:10:11;2.80;99.90
59311;DHT22;45078;51.654;21.250;2023-02-28T07:12:38;2.60;99.90
59311;DHT22;45078;51.654;21.250;2023-02-28T07:15:05;2.10;99.90
59311;DHT22;45078;51.654;21.250;2023-02-28T07:17:31;1.70;99.90
59311;DHT22;45078;51.654;21.250;2023-02-28T07:19:57;1.50;99.90
59311;DHT22;45078;51.654;21.250;2023-02-28T07:22:23;1.40;99.90
59311;DHT22;45078;51.654;21.250;2023-02-28T07:24:48;1.00;99.90
59311;DHT22;45078;51.654;21.250;2023-02-28T07:27:14;0.90;99.90
59311;DHT22;45078;51.654;21.250;2023-02-28T07:29:52;0.70;99.90
59311;DHT22;45078;51.654;21.250;2023-02-28T07:32:19;0.50;99.90
59311;DHT22;45078;51.654;21.250;2023-02-28T07:34:45;0.50;99.90
59311;DHT22;45078;51.654;21.250;2023-02-28T07:37:11;0.50;99.90
59311;DHT22;45078;51.654;21.250;2023-02-28T07:39:36;0.50;99.90
59311;DHT22;45078;51.654;21.250;2023-02-28T07:42:05;0.50;99.90
59311;DHT22;45078;51.654;21.250;2023-02-28T07:44:32;0.40;99.90
59311;DHT22;45078;51.654;21.250;2023-02-28T07:46:57;0.50;99.90
59311;DHT22;45078;51.654;21.250;2023-02-28T07:49:23;0.60;99.90
59311;DHT22;45078;51.654;21.250;2023-02-28T07:51:49;0.80;99.90
59311;DHT22;45078;51.654;21.250;2023-02-28T07:54:15;1.00;99.90
59311;DHT22;45078;51.654;21.250;2023-02-28T07:56:40;1.10;99.90
59311;DHT22;45078;51.654;21.250;2023-02-28T07:59:06;1.00;99.90
59311;DHT22;45078;51.654;21.250;2023-02-28T08:01:32;1.00;99.90
59311;DHT22;45078;51.654;21.250;2023-02-28T08:03:58;1.30;99.90
59311;DHT22;45078;51.654;21.250;2023-02-28T08:06:25;1.30;99.90
59311;DHT22;45078;51.654;21.250;2023-02-28T08:08:53;1.40;99.90
59311;DHT22;45078;51.654;21.250;2023-02-28T08:11:19;1.40;99.90
59311;DHT22;45078;51.654;21.250;2023-02-28T08:13:45;1.40;99.90
59311;DHT22;45078;51.654;21.250;2023-02-28T08:16:12;1.40;99.90
59311;DHT22;45078;51.654;21.250;2023-02-28T08:18:40;1.20;99.90
59311;DHT22;45078;51.654;21.250;2023-02-28T08:21:10;1.30;99.90
59311;DHT22;45078;51.654;21.250;2023-02-28T08:23:36;1.30;99.90
59311;DHT22;45078;51.654;21.250;2023-02-28T08:26:02;1.30;99.90
59311;DHT22;45078;51.654;21.250;2023-02-28T08:28:29;1.70;99.90
59311;DHT22;45078;51.654;21.250;2023-02-28T08:30:55;1.80;99.90
59311;DHT22;45078;51.654;21.250;2023-02-28T08:33:21;1.90;99.90
59311;DHT22;45078;51.654;21.250;2023-02-28T08:35:48;2.00;99.90
59311;DHT22;45078;51.654;21.250;2023-02-28T08:38:14;2.10;99.90
59311;DHT22;45078;51.654;21.250;2023-02-28T08:40:39;2.30;99.90
59311;DHT22;45078;51.654;21.250;2023-02-28T08:43:06;2.40;96.60
59311;DHT22;45078;51.654;21.250;2023-02-28T08:45:32;2.60;99.90
59311;DHT22;45078;51.654;21.250;2023-02-28T08:47:58;2.90;98.60
59311;DHT22;45078;51.654;21.250;2023-02-28T08:50:24;2.80;97.90
59311;DHT22;45078;51.654;21.250;2023-02-28T08:52:50;2.80;98.00
59311;DHT22;45078;51.654;21.250;2023-02-28T08:55:15;3.10;95.40
59311;DHT22;45078;51.654;21.250;2023-02-28T08:57:41;3.00;96.80
59311;DHT22;45078;51.654;21.250;2023-02-28T09:00:07;3.10;98.50
59311;DHT22;45078;51.654;21.250;2023-02-28T09:02:33;3.10;94.10
59311;DHT22;45078;51.654;21.250;2023-02-28T09:04:59;3.00;95.00
59311;DHT22;45078;51.654;21.250;2023-02-28T09:07:25;3.30;94.20
59311;DHT22;45078;51.654;21.250;2023-02-28T09:09:51;3.60;96.90
59311;DHT22;45078;51.654;21.250;2023-02-28T09:12:26;3.80;93.60
59311;DHT22;45078;51.654;21.250;2023-02-28T09:14:52;3.30;85.00
59311;DHT22;45078;51.654;21.250;2023-02-28T09:17:19;3.50;82.70
59311;DHT22;45078;51.654;21.250;2023-02-28T09:19:47;3.50;90.70
59311;DHT22;45078;51.654;21.250;2023-02-28T09:22:14;3.60;85.00
59311;DHT22;45078;51.654;21.250;2023-02-28T09:24:40;3.80;90.70
59311;DHT22;45078;51.654;21.250;2023-02-28T09:27:06;3.80;83.70
59311;DHT22;45078;51.654;21.250;2023-02-28T09:29:33;3.80;81.40
59311;DHT22;45078;51.654;21.250;2023-02-28T09:31:59;3.90;91.50
59311;DHT22;45078;51.654;21.250;2023-02-28T09:34:26;4.30;92.90
59311;DHT22;45078;51.654;21.250;2023-02-28T09:36:52;4.70;83.00
59311;DHT22;45078;51.654;21.250;2023-02-28T09:39:20;4.70;88.80
59311;DHT22;45078;51.654;21.250;2023-02-28T09:41:50;5.10;88.10
59311;DHT22;45078;51.654;21.250;2023-02-28T09:44:33;5.30;79.20
59311;DHT22;45078;51.654;21.250;2023-02-28T09:47:01;5.30;81.80
59311;DHT22;45078;51.654;21.250;2023-02-28T09:49:39;5.40;74.10
59311;DHT22;45078;51.654;21.250;2023-02-28T09:52:28;5.10;73.70
59311;DHT22;45078;51.654;21.250;2023-02-28T09:54:55;5.00;78.10
59311;DHT22;45078;51.654;21.250;2023-02-28T09:57:37;4.80;77.90
59311;DHT22;45078;51.654;21.250;2023-02-28T10:00:19;5.00;82.50
59311;DHT22;45078;51.654;21.250;2023-02-28T10:05:27;4.30;78.00
59311;DHT22;45078;51.654;21.250;2023-02-28T10:10:55;4.30;84.90
59311;DHT22;45078;51.654;21.250;2023-02-28T10:13:36;4.20;83.30
59311;DHT22;45078;51.654;21.250;2023-02-28T10:21:59;4.30;76.30
59311;DHT22;45078;51.654;21.250;2023-02-28T10:26:53;4.90;78.10
59311;DHT22;45078;51.654;21.250;2023-02-28T10:29:22;5.10;75.30
59311;DHT22;45078;51.654;21.250;2023-02-28T10:31:48;5.00;72.60
59311;DHT22;45078;51.654;21.250;2023-02-28T10:34:14;4.70;72.20
59311;DHT22;45078;51.654;21.250;2023-02-28T10:36:40;4.90;76.30
59311;DHT22;45078;51.654;21.250;2023-02-28T10:39:34;5.20;76.20
59311;DHT22;45078;51.654;21.250;2023-02-28T10:41:59;5.50;74.10
59311;DHT22;45078;51.654;21.250;2023-02-28T10:44:25;5.70;75.50
59311;DHT22;45078;51.654;21.250;2023-02-28T10:46:51;5.80;69.50
59311;DHT22;45078;51.654;21.250;2023-02-28T10:49:22;5.50;73.10
59311;DHT22;45078;51.654;21.250;2023-02-28T10:51:54;5.80;71.00
59311;DHT22;45078;51.654;21.250;2023-02-28T10:54:35;6.00;70.70
59311;DHT22;45078;51.654;21.250;2023-02-28T10:57:21;6.00;69.20
59311;DHT22;45078;51.654;21.250;2023-02-28T10:59:51;6.10;70.90
59311;DHT22;45078;51.654;21.250;2023-02-28T11:02:36;6.30;70.40
59311;DHT22;45078;51.654;21.250;2023-02-28T11:05:24;6.40;68.60
59311;DHT22;45078;51.654;21.250;2023-02-28T11:07:52;6.30;66.00
59311;DHT22;45078;51.654;21.250;2023-02-28T11:10:20;6.30;64.70
59311;DHT22;45078;51.654;21.250;2023-02-28T11:12:48;6.40;67.10
59311;DHT22;45078;51.654;21.250;2023-02-28T11:17:44;6.20;65.60
59311;DHT22;45078;51.654;21.250;2023-02-28T11:20:22;6.30;67.30
59311;DHT22;45078;51.654;21.250;2023-02-28T11:22:49;6.00;66.40
59311;DHT22;45078;51.654;21.250;2023-02-28T11:25:25;6.00;66.80
59311;DHT22;45078;51.654;21.250;2023-02-28T11:27:54;5.80;68.40
59311;DHT22;45078;51.654;21.250;2023-02-28T11:30:36;5.80;68.40
59311;DHT22;45078;51.654;21.250;2023-02-28T11:33:28;6.00;70.20
59311;DHT22;45078;51.654;21.250;2023-02-28T11:36:08;6.00;67.60
59311;DHT22;45078;51.654;21.250;2023-02-28T11:38:35;6.10;68.60
59311;DHT22;45078;51.654;21.250;2023-02-28T11:41:36;6.00;67.80
59311;DHT22;45078;51.654;21.250;2023-02-28T11:46:49;6.50;65.10
59311;DHT22;45078;51.654;21.250;2023-02-28T11:52:33;6.60;68.10
59311;DHT22;45078;51.654;21.250;2023-02-28T11:55:34;6.40;67.80
59311;DHT22;45078;51.654;21.250;2023-02-28T12:07:14;6.50;65.40
59311;DHT22;45078;51.654;21.250;2023-02-28T12:15:35;6.90;64.50
59311;DHT22;45078;51.654;21.250;2023-02-28T12:21:02;7.00;64.20
59311;DHT22;45078;51.654;21.250;2023-02-28T12:29:04;7.30;65.50
59311;DHT22;45078;51.654;21.250;2023-02-28T12:31:41;7.10;64.20
59311;DHT22;45078;51.654;21.250;2023-02-28T12:34:13;7.30;64.20
59311;DHT22;45078;51.654;21.250;2023-02-28T12:36:43;7.30;61.30
59311;DHT22;45078;51.654;21.250;2023-02-28T12:39:19;7.30;61.20
59311;DHT22;45078;51.654;21.250;2023-02-28T12:41:54;7.50;62.30
59311;DHT22;45078;51.654;21.250;2023-02-28T12:44:54;7.50;62.50
59311;DHT22;45078;51.654;21.250;2023-02-28T12:47:21;7.50;63.60
59311;DHT22;45078;51.654;21.250;2023-02-28T12:50:07;7.70;62.00
59311;DHT22;45078;51.654;21.250;2023-02-28T13:07:22;7.80;61.10
59311;DHT22;45078;51.654;21.250;2023-02-28T13:09:57;8.00;60.20
59311;DHT22;45078;51.654;21.250;2023-02-28T13:12:23;8.10;61.30
59311;DHT22;45078;51.654;21.250;2023-02-28T13:14:50;8.00;59.40
59311;DHT22;45078;51.654;21.250;2023-02-28T13:17:19;8.10;61.30
59311;DHT22;45078;51.654;21.250;2023-02-28T13:22:40;7.90;59.60
59311;DHT22;45078;51.654;21.250;2023-02-28T13:27:53;9.10;56.70
59311;DHT22;45078;51.654;21.250;2023-02-28T13:34:03;10.10;55.70
59311;DHT22;45078;51.654;21.250;2023-02-28T13:36:25;10.70;54.90
59311;DHT22;45078;51.654;21.250;2023-02-28T13:38:53;11.80;52.70
59311;DHT22;45078;51.654;21.250;2023-02-28T13:43:59;14.20;48.60
59311;DHT22;45078;51.654;21.250;2023-02-28T13:46:26;15.40;45.10
59311;DHT22;45078;51.654;21.250;2023-02-28T13:48:52;16.20;42.30
59311;DHT22;45078;51.654;21.250;2023-02-28T13:51:42;16.90;41.10
59311;DHT22;45078;51.654;21.250;2023-02-28T14:03:10;19.20;35.80
59311;DHT22;45078;51.654;21.250;2023-02-28T14:05:41;19.30;35.80
59311;DHT22;45078;51.654;21.250;2023-02-28T14:08:22;18.50;36.70
59311;DHT22;45078;51.654;21.250;2023-02-28T14:11:06;18.70;37.20
59311;DHT22;45078;51.654;21.250;2023-02-28T14:16:10;18.10;35.70
59311;DHT22;45078;51.654;21.250;2023-02-28T14:18:42;19.00;36.10
59311;DHT22;45078;51.654;21.250;2023-02-28T14:21:28;17.10;36.20
59311;DHT22;45078;51.654;21.250;2023-02-28T14:29:33;17.40;37.70
59311;DHT22;45078;51.654;21.250;2023-02-28T14:35:26;17.60;36.70
59311;DHT22;45078;51.654;21.250;2023-02-28T14:37:54;18.00;36.90
59311;DHT22;45078;51.654;21.250;2023-02-28T14:40:39;18.70;36.30
59311;DHT22;45078;51.654;21.250;2023-02-28T14:43:17;17.50;36.70
59311;DHT22;45078;51.654;21.250;2023-02-28T14:45:50;17.80;35.90
59311;DHT22;45078;51.654;21.250;2023-02-28T14:48:17;17.30;36.60
59311;DHT22;45078;51.654;21.250;2023-02-28T14:50:50;16.50;37.30
59311;DHT22;45078;51.654;21.250;2023-02-28T14:53:20;16.30;37.70
59311;DHT22;45078;51.654;21.250;2023-02-28T14:55:47;15.40;38.70
59311;DHT22;45078;51.654;21.250;2023-02-28T14:58:27;15.20;39.00
59311;DHT22;45078;51.654;21.250;2023-02-28T15:00:56;15.20;39.00
59311;DHT22;45078;51.654;21.250;2023-02-28T15:03:41;15.10;39.30
59311;DHT22;45078;51.654;21.250;2023-02-28T15:06:15;14.50;40.20
59311;DHT22;45078;51.654;21.250;2023-02-28T15:08:43;14.40;40.20
59311;DHT22;45078;51.654;21.250;2023-02-28T15:11:17;14.60;40.40
59311;DHT22;45078;51.654;21.250;2023-02-28T15:13:52;13.50;41.00
59311;DHT22;45078;51.654;21.250;2023-02-28T15:16:22;13.00;43.10
59311;DHT22;45078;51.654;21.250;2023-02-28T15:18:54;12.40;43.70
59311;DHT22;45078;51.654;21.250;2023-02-28T15:21:23;11.70;44.60
59311;DHT22;45078;51.654;21.250;2023-02-28T15:23:54;11.10;45.60
59311;DHT22;45078;51.654;21.250;2023-02-28T15:26:25;10.60;46.70
59311;DHT22;45078;51.654;21.250;2023-02-28T15:28:58;10.30;47.10
59311;DHT22;45078;51.654;21.250;2023-02-28T15:31:31;9.70;47.50
59311;DHT22;45078;51.654;21.250;2023-02-28T15:34:03;9.20;48.30
59311;DHT22;45078;51.654;21.250;2023-02-28T15:36:31;8.50;50.20
59311;DHT22;45078;51.654;21.250;2023-02-28T15:38:59;7.60;52.30
59311;DHT22;45078;51.654;21.250;2023-02-28T15:41:31;7.20;53.70
59311;DHT22;45078;51.654;21.250;2023-02-28T15:46:58;5.80;58.10
59311;DHT22;45078;51.654;21.250;2023-02-28T15:49:25;5.40;59.80
59311;DHT22;45078;51.654;21.250;2023-02-28T15:51:52;5.00;62.20
59311;DHT22;45078;51.654;21.250;2023-02-28T15:54:55;4.80;62.70
59311;DHT22;45078;51.654;21.250;2023-02-28T15:57:19;4.40;65.20
59311;DHT22;45078;51.654;21.250;2023-02-28T15:59:55;4.20;66.90
59311;DHT22;45078;51.654;21.250;2023-02-28T16:02:31;4.00;68.30
59311;DHT22;45078;51.654;21.250;2023-02-28T16:07:36;3.50;79.40
59311;DHT22;45078;51.654;21.250;2023-02-28T16:10:04;3.30;85.30
59311;DHT22;45078;51.654;21.250;2023-02-28T16:12:32;3.00;91.10
59311;DHT22;45078;51.654;21.250;2023-02-28T16:15:43;2.80;93.50
59311;DHT22;45078;51.654;21.250;2023-02-28T16:17:53;2.50;96.80
59311;DHT22;45078;51.654;21.250;2023-02-28T16:22:46;2.00;99.90
59311;DHT22;45078;51.654;21.250;2023-02-28T16:25:17;1.70;99.90
59311;DHT22;45078;51.654;21.250;2023-02-28T16:27:46;1.50;99.90
59311;DHT22;45078;51.654;21.250;2023-02-28T16:30:23;1.30;99.90
59311;DHT22;45078;51.654;21.250;2023-02-28T16:32:50;1.20;99.90
59311;DHT22;45078;51.654;21.250;2023-02-28T16:35:16;1.10;99.90
59311;DHT22;45078;51.654;21.250;2023-02-28T16:37:43;1.00;99.90
59311;DHT22;45078;51.654;21.250;2023-02-28T16:40:17;0.90;99.90
59311;DHT22;45078;51.654;21.250;2023-02-28T16:42:45;0.90;99.90
59311;DHT22;45078;51.654;21.250;2023-02-28T16:45:20;0.70;99.90
59311;DHT22;45078;51.654;21.250;2023-02-28T16:47:46;0.60;99.90
59311;DHT22;45078;51.654;21.250;2023-02-28T16:50:20;0.50;99.90
59311;DHT22;45078;51.654;21.250;2023-02-28T16:52:46;0.40;99.90
59311;DHT22;45078;51.654;21.250;2023-02-28T16:55:13;0.30;99.90
59311;DHT22;45078;51.654;21.250;2023-02-28T16:57:39;0.30;99.90
59311;DHT22;45078;51.654;21.250;2023-02-28T17:00:08;0.20;99.90
59311;DHT22;45078;51.654;21.250;2023-02-28T17:02:36;0.20;99.90
59311;DHT22;45078;51.654;21.250;2023-02-28T17:05:02;0.00;99.90
59311;DHT22;45078;51.654;21.250;2023-02-28T17:07:28;0.00;99.90
59311;DHT22;45078;51.654;21.250;2023-02-28T17:09:54;-0.10;99.90
59311;DHT22;45078;51.654;21.250;2023-02-28T17:12:19;-0.20;99.90
59311;DHT22;45078;51.654;21.250;2023-02-28T17:14:45;-0.20;99.90
59311;DHT22;45078;51.654;21.250;2023-02-28T17:17:20;-0.30;99.90
59311;DHT22;45078;51.654;21.250;2023-02-28T17:19:47;-0.30;99.90
59311;DHT22;45078;51.654;21.250;2023-02-28T17:22:13;-0.30;99.90
59311;DHT22;45078;51.654;21.250;2023-02-28T17:24:39;-0.40;99.90
59311;DHT22;45078;51.654;21.250;2023-02-28T17:27:05;-0.50;99.90
59311;DHT22;45078;51.654;21.250;2023-02-28T17:29:33;-0.50;99.90
59311;DHT22;45078;51.654;21.250;2023-02-28T17:31:58;-0.50;99.90
59311;DHT22;45078;51.654;21.250;2023-02-28T17:34:24;-0.70;99.90
59311;DHT22;45078;51.654;21.250;2023-02-28T17:36:51;-0.80;99.90
59311;DHT22;45078;51.654;21.250;2023-02-28T17:39:18;-0.80;99.90
59311;DHT22;45078;51.654;21.250;2023-02-28T17:41:53;-0.90;99.90
59311;DHT22;45078;51.654;21.250;2023-02-28T17:44:20;-1.00;99.90
59311;DHT22;45078;51.654;21.250;2023-02-28T17:46:46;-1.00;99.90
59311;DHT22;45078;51.654;21.250;2023-02-28T17:49:13;-1.20;99.90
59311;DHT22;45078;51.654;21.250;2023-02-28T17:51:38;-1.20;99.90
59311;DHT22;45078;51.654;21.250;2023-02-28T17:54:04;-1.20;99.90